San Juan Capistrano, CA

12:31 PM PDT on April 19, 2015 (GMT -0700)
John Wayne-Orange County | | Change Station
CLOSE
Current Station
Airport
Location: Santa Ana,
Elevation: 56 ft
Nearby Weather Stations

Elev 56 ft 33.68 °N, 117.87 °W | Updated 38 minutes ago

Mostly Cloudy
Mostly Cloudy
70 °F
Feels Like 70 °F
N
10
Wind Variable Wind from SSW

Today
High -- | Low -- °F
--% Chance of Precip.
Yesterday
High -- | Low -- °F
Precip. -- in
6:15 AM 7:24 PM
New Moon, 2% visible
Pressure 29.94 in
Visibility 9.0 miles
Clouds Few 1200 ft
Few 25000 ft
Dew Point 54 °F
Humidity 57%
Rainfall 0.00 in
Snow Depth Not available.
UV 10 out of 12
Pollen 7.20 out of 12
Air Quality Not available.
Flu Activity Sporadic
METAR KSNA 191853Z COR 21009KT 180V250 9SM FEW012 FEW250 21/12 A2994 RMK AO2 SLP138 T02110122

More Conditions Fewer Conditions

Pressure 29.94 in
Visibility 9.0 miles
Clouds Few 1200 ft
Few 25000 ft
Dew Point 54 °F
Humidity 57%
Rainfall 0.00 in
Snow Depth Not available.
UV 10 out of 12
Pollen 7.20 out of 12
Air Quality Not available.
Flu Activity Sporadic
METAR KSNA 191853Z COR 21009KT 180V250 9SM FEW012 FEW250 21/12 A2994 RMK AO2 SLP138 T02110122

More Conditions Fewer Conditions

10-Day Weather Forecast

Almanac

Astronomy

Apr. 19, 2015 Rise Set
Actual Time
Civil Twilight
Nautical Twilight
Astronomical Twilight
Moon
Length of Visible Light
Length of Day
Tomorrow will be .
, % of the Moon is Illuminated

Today's Extremes

State Highs State Lows

Community

WunderPhotos

Upload Photos

1,814,944 photos uploaded!

WunderBlogs® & News

Nearby

Air Quality

  Air Quality AQ Index Pollutant
Not available.

Snow Depth

Station Depth Elevation

Earthquake Activity

City Distance Mag. Time & Date
Minimum magnitude displayed is 2.5.

Coastal Water Temperatures

Place Temperature

Stations

Nearby Weather Stations

Station Location Temp. Windchill Dew Point Humidity Wind Precip. Elev Updated Type